sensor_id;sensor_type;location;lat;lon;timestamp;P1;durP1;ratioP1;P2;durP2;ratioP2
6821;SDS011;3449;48.728;8.968;2023-04-08T00:02:21;24.27;;;10.90;;
6821;SDS011;3449;48.728;8.968;2023-04-08T00:04:48;23.37;;;11.57;;
6821;SDS011;3449;48.728;8.968;2023-04-08T00:07:16;19.57;;;10.57;;
6821;SDS011;3449;48.728;8.968;2023-04-08T00:09:43;17.00;;;10.30;;
6821;SDS011;3449;48.728;8.968;2023-04-08T00:12:10;24.00;;;12.07;;
6821;SDS011;3449;48.728;8.968;2023-04-08T00:14:37;18.23;;;10.80;;
6821;SDS011;3449;48.728;8.968;2023-04-08T00:17:05;23.40;;;12.10;;
6821;SDS011;3449;48.728;8.968;2023-04-08T00:19:32;21.60;;;11.20;;
6821;SDS011;3449;48.728;8.968;2023-04-08T00:21:59;22.70;;;12.17;;
6821;SDS011;3449;48.728;8.968;2023-04-08T00:24:27;21.67;;;10.70;;
6821;SDS011;3449;48.728;8.968;2023-04-08T00:26:54;23.33;;;11.90;;
6821;SDS011;3449;48.728;8.968;2023-04-08T00:29:21;25.57;;;13.03;;
6821;SDS011;3449;48.728;8.968;2023-04-08T00:31:48;23.90;;;12.17;;
6821;SDS011;3449;48.728;8.968;2023-04-08T00:34:15;17.30;;;10.43;;
6821;SDS011;3449;48.728;8.968;2023-04-08T00:36:42;20.23;;;11.10;;
6821;SDS011;3449;48.728;8.968;2023-04-08T00:39:10;19.00;;;11.13;;
6821;SDS011;3449;48.728;8.968;2023-04-08T00:41:38;16.93;;;10.40;;
6821;SDS011;3449;48.728;8.968;2023-04-08T00:44:05;16.67;;;9.73;;
6821;SDS011;3449;48.728;8.968;2023-04-08T00:46:34;19.47;;;9.90;;
6821;SDS011;3449;48.728;8.968;2023-04-08T00:49:03;17.07;;;10.07;;
6821;SDS011;3449;48.728;8.968;2023-04-08T00:51:31;15.80;;;9.97;;
6821;SDS011;3449;48.728;8.968;2023-04-08T00:54:00;17.37;;;10.57;;
6821;SDS011;3449;48.728;8.968;2023-04-08T00:56:28;18.00;;;10.57;;
6821;SDS011;3449;48.728;8.968;2023-04-08T00:58:58;17.33;;;9.53;;
6821;SDS011;3449;48.728;8.968;2023-04-08T01:01:27;15.60;;;8.90;;
6821;SDS011;3449;48.728;8.968;2023-04-08T01:04:01;19.87;;;10.93;;
6821;SDS011;3449;48.728;8.968;2023-04-08T01:06:35;15.90;;;9.30;;
6821;SDS011;3449;48.728;8.968;2023-04-08T01:09:07;16.77;;;9.70;;
6821;SDS011;3449;48.728;8.968;2023-04-08T01:11:35;20.33;;;9.77;;
6821;SDS011;3449;48.728;8.968;2023-04-08T01:14:08;19.60;;;10.23;;
6821;SDS011;3449;48.728;8.968;2023-04-08T01:16:37;16.60;;;10.57;;
6821;SDS011;3449;48.728;8.968;2023-04-08T01:19:06;28.33;;;10.73;;
6821;SDS011;3449;48.728;8.968;2023-04-08T01:21:36;19.80;;;10.10;;
6821;SDS011;3449;48.728;8.968;2023-04-08T01:24:05;18.60;;;11.50;;
6821;SDS011;3449;48.728;8.968;2023-04-08T01:26:40;15.97;;;9.60;;
6821;SDS011;3449;48.728;8.968;2023-04-08T01:29:08;18.67;;;9.50;;
6821;SDS011;3449;48.728;8.968;2023-04-08T01:31:37;18.20;;;11.10;;
6821;SDS011;3449;48.728;8.968;2023-04-08T01:34:07;21.07;;;10.87;;
6821;SDS011;3449;48.728;8.968;2023-04-08T01:36:36;22.50;;;11.83;;
6821;SDS011;3449;48.728;8.968;2023-04-08T01:39:04;28.00;;;11.43;;
6821;SDS011;3449;48.728;8.968;2023-04-08T01:41:33;18.73;;;11.40;;
6821;SDS011;3449;48.728;8.968;2023-04-08T01:44:04;22.30;;;12.90;;
6821;SDS011;3449;48.728;8.968;2023-04-08T01:46:31;24.17;;;12.70;;
6821;SDS011;3449;48.728;8.968;2023-04-08T01:48:59;21.37;;;11.57;;
6821;SDS011;3449;48.728;8.968;2023-04-08T01:51:26;19.97;;;12.30;;
6821;SDS011;3449;48.728;8.968;2023-04-08T01:53:55;21.97;;;11.87;;
6821;SDS011;3449;48.728;8.968;2023-04-08T01:56:22;24.70;;;13.77;;
6821;SDS011;3449;48.728;8.968;2023-04-08T01:58:54;28.40;;;14.67;;
6821;SDS011;3449;48.728;8.968;2023-04-08T02:01:25;28.00;;;14.87;;
6821;SDS011;3449;48.728;8.968;2023-04-08T02:03:54;27.80;;;14.70;;
6821;SDS011;3449;48.728;8.968;2023-04-08T02:06:23;29.57;;;14.60;;
6821;SDS011;3449;48.728;8.968;2023-04-08T02:08:53;28.33;;;14.07;;
6821;SDS011;3449;48.728;8.968;2023-04-08T02:11:20;27.47;;;14.33;;
6821;SDS011;3449;48.728;8.968;2023-04-08T02:13:47;31.00;;;15.03;;
6821;SDS011;3449;48.728;8.968;2023-04-08T02:16:15;32.60;;;15.33;;
6821;SDS011;3449;48.728;8.968;2023-04-08T02:18:48;30.83;;;15.37;;
6821;SDS011;3449;48.728;8.968;2023-04-08T02:21:21;32.10;;;14.87;;
6821;SDS011;3449;48.728;8.968;2023-04-08T02:23:57;28.90;;;13.70;;
6821;SDS011;3449;48.728;8.968;2023-04-08T02:26:25;28.07;;;13.20;;
6821;SDS011;3449;48.728;8.968;2023-04-08T02:28:52;29.90;;;12.10;;
6821;SDS011;3449;48.728;8.968;2023-04-08T02:31:21;24.50;;;12.73;;
6821;SDS011;3449;48.728;8.968;2023-04-08T02:33:51;24.57;;;11.50;;
6821;SDS011;3449;48.728;8.968;2023-04-08T02:36:19;26.13;;;13.47;;
6821;SDS011;3449;48.728;8.968;2023-04-08T02:38:47;32.83;;;12.70;;
6821;SDS011;3449;48.728;8.968;2023-04-08T02:41:14;22.10;;;12.50;;
6821;SDS011;3449;48.728;8.968;2023-04-08T02:43:41;27.87;;;13.37;;
6821;SDS011;3449;48.728;8.968;2023-04-08T02:46:08;24.23;;;12.53;;
6821;SDS011;3449;48.728;8.968;2023-04-08T02:48:36;31.97;;;12.50;;
6821;SDS011;3449;48.728;8.968;2023-04-08T02:51:05;23.87;;;11.23;;
6821;SDS011;3449;48.728;8.968;2023-04-08T02:53:32;29.97;;;13.47;;
6821;SDS011;3449;48.728;8.968;2023-04-08T02:55:59;33.60;;;13.83;;
6821;SDS011;3449;48.728;8.968;2023-04-08T02:58:26;28.37;;;14.27;;
6821;SDS011;3449;48.728;8.968;2023-04-08T03:00:53;30.97;;;12.90;;
6821;SDS011;3449;48.728;8.968;2023-04-08T03:03:20;25.13;;;13.47;;
6821;SDS011;3449;48.728;8.968;2023-04-08T03:05:51;20.10;;;10.90;;
6821;SDS011;3449;48.728;8.968;2023-04-08T03:08:19;27.27;;;13.60;;
6821;SDS011;3449;48.728;8.968;2023-04-08T03:10:47;29.17;;;12.70;;
6821;SDS011;3449;48.728;8.968;2023-04-08T03:13:14;23.40;;;13.67;;
6821;SDS011;3449;48.728;8.968;2023-04-08T03:15:42;24.60;;;12.60;;
6821;SDS011;3449;48.728;8.968;2023-04-08T03:18:09;24.60;;;12.17;;
6821;SDS011;3449;48.728;8.968;2023-04-08T03:20:35;20.87;;;10.73;;
6821;SDS011;3449;48.728;8.968;2023-04-08T03:23:02;25.97;;;11.73;;
6821;SDS011;3449;48.728;8.968;2023-04-08T03:25:30;24.57;;;12.50;;
6821;SDS011;3449;48.728;8.968;2023-04-08T03:27:57;27.80;;;11.53;;
6821;SDS011;3449;48.728;8.968;2023-04-08T03:30:24;22.93;;;10.60;;
6821;SDS011;3449;48.728;8.968;2023-04-08T03:32:51;23.57;;;10.80;;
6821;SDS011;3449;48.728;8.968;2023-04-08T03:35:18;22.17;;;10.57;;
6821;SDS011;3449;48.728;8.968;2023-04-08T03:37:45;27.63;;;11.00;;
6821;SDS011;3449;48.728;8.968;2023-04-08T03:40:12;21.43;;;11.07;;
6821;SDS011;3449;48.728;8.968;2023-04-08T03:42:40;21.27;;;10.83;;
6821;SDS011;3449;48.728;8.968;2023-04-08T03:45:08;24.00;;;11.67;;
6821;SDS011;3449;48.728;8.968;2023-04-08T03:47:35;21.27;;;11.47;;
6821;SDS011;3449;48.728;8.968;2023-04-08T03:50:02;21.20;;;10.17;;
6821;SDS011;3449;48.728;8.968;2023-04-08T03:52:29;22.43;;;11.87;;
6821;SDS011;3449;48.728;8.968;2023-04-08T03:54:55;21.20;;;10.30;;
6821;SDS011;3449;48.728;8.968;2023-04-08T03:57:22;20.00;;;11.33;;
6821;SDS011;3449;48.728;8.968;2023-04-08T03:59:50;26.77;;;12.60;;
6821;SDS011;3449;48.728;8.968;2023-04-08T04:02:17;24.90;;;11.50;;
6821;SDS011;3449;48.728;8.968;2023-04-08T04:04:44;23.63;;;11.43;;
6821;SDS011;3449;48.728;8.968;2023-04-08T04:07:11;31.33;;;11.30;;
6821;SDS011;3449;48.728;8.968;2023-04-08T04:09:38;24.93;;;12.50;;
6821;SDS011;3449;48.728;8.968;2023-04-08T04:12:05;23.80;;;12.43;;
6821;SDS011;3449;48.728;8.968;2023-04-08T04:14:32;25.50;;;12.37;;
6821;SDS011;3449;48.728;8.968;2023-04-08T04:17:00;28.47;;;13.43;;
6821;SDS011;3449;48.728;8.968;2023-04-08T04:19:28;26.23;;;11.70;;
6821;SDS011;3449;48.728;8.968;2023-04-08T04:21:56;24.10;;;12.03;;
6821;SDS011;3449;48.728;8.968;2023-04-08T04:24:23;21.90;;;12.03;;
6821;SDS011;3449;48.728;8.968;2023-04-08T04:26:50;22.30;;;11.90;;
6821;SDS011;3449;48.728;8.968;2023-04-08T04:29:16;24.00;;;12.60;;
6821;SDS011;3449;48.728;8.968;2023-04-08T04:31:43;21.60;;;11.57;;
6821;SDS011;3449;48.728;8.968;2023-04-08T04:34:12;21.20;;;10.93;;
6821;SDS011;3449;48.728;8.968;2023-04-08T04:36:38;26.67;;;12.30;;
6821;SDS011;3449;48.728;8.968;2023-04-08T04:39:05;27.53;;;12.80;;
6821;SDS011;3449;48.728;8.968;2023-04-08T04:41:32;23.20;;;12.10;;
6821;SDS011;3449;48.728;8.968;2023-04-08T04:44:04;26.87;;;13.50;;
6821;SDS011;3449;48.728;8.968;2023-04-08T04:46:31;28.07;;;13.30;;
6821;SDS011;3449;48.728;8.968;2023-04-08T04:48:58;22.27;;;13.10;;
6821;SDS011;3449;48.728;8.968;2023-04-08T04:51:26;23.17;;;12.00;;
6821;SDS011;3449;48.728;8.968;2023-04-08T04:53:53;23.30;;;12.50;;
6821;SDS011;3449;48.728;8.968;2023-04-08T04:56:20;21.03;;;12.77;;
6821;SDS011;3449;48.728;8.968;2023-04-08T04:58:47;28.30;;;12.60;;
6821;SDS011;3449;48.728;8.968;2023-04-08T05:01:14;23.50;;;13.07;;
6821;SDS011;3449;48.728;8.968;2023-04-08T05:03:41;26.43;;;13.33;;
6821;SDS011;3449;48.728;8.968;2023-04-08T05:06:08;37.30;;;13.97;;
6821;SDS011;3449;48.728;8.968;2023-04-08T05:08:36;29.10;;;13.03;;
6821;SDS011;3449;48.728;8.968;2023-04-08T05:11:07;27.87;;;12.77;;
6821;SDS011;3449;48.728;8.968;2023-04-08T05:13:34;26.17;;;13.00;;
6821;SDS011;3449;48.728;8.968;2023-04-08T05:16:01;26.70;;;13.33;;
6821;SDS011;3449;48.728;8.968;2023-04-08T05:18:28;26.37;;;13.33;;
6821;SDS011;3449;48.728;8.968;2023-04-08T05:20:55;24.30;;;13.40;;
6821;SDS011;3449;48.728;8.968;2023-04-08T05:23:22;26.90;;;14.50;;
6821;SDS011;3449;48.728;8.968;2023-04-08T05:25:50;28.20;;;14.50;;
6821;SDS011;3449;48.728;8.968;2023-04-08T05:28:17;36.47;;;14.90;;
6821;SDS011;3449;48.728;8.968;2023-04-08T05:30:47;26.50;;;14.07;;
6821;SDS011;3449;48.728;8.968;2023-04-08T05:33:14;28.47;;;14.23;;
6821;SDS011;3449;48.728;8.968;2023-04-08T05:35:41;30.10;;;14.97;;
6821;SDS011;3449;48.728;8.968;2023-04-08T05:38:08;27.47;;;14.70;;
6821;SDS011;3449;48.728;8.968;2023-04-08T05:40:35;29.73;;;14.40;;
6821;SDS011;3449;48.728;8.968;2023-04-08T05:43:04;29.67;;;14.70;;
6821;SDS011;3449;48.728;8.968;2023-04-08T05:45:30;24.80;;;12.90;;
6821;SDS011;3449;48.728;8.968;2023-04-08T05:47:57;25.07;;;13.60;;
6821;SDS011;3449;48.728;8.968;2023-04-08T05:50:24;24.33;;;12.80;;
6821;SDS011;3449;48.728;8.968;2023-04-08T05:52:51;27.00;;;12.63;;
6821;SDS011;3449;48.728;8.968;2023-04-08T05:55:18;22.20;;;11.47;;
6821;SDS011;3449;48.728;8.968;2023-04-08T05:57:45;20.90;;;12.97;;
6821;SDS011;3449;48.728;8.968;2023-04-08T06:00:13;22.50;;;11.17;;
6821;SDS011;3449;48.728;8.968;2023-04-08T06:02:41;20.67;;;11.83;;
6821;SDS011;3449;48.728;8.968;2023-04-08T06:05:08;23.63;;;12.40;;
6821;SDS011;3449;48.728;8.968;2023-04-08T06:07:35;21.57;;;12.20;;
6821;SDS011;3449;48.728;8.968;2023-04-08T06:10:02;22.03;;;11.87;;
6821;SDS011;3449;48.728;8.968;2023-04-08T06:12:33;20.70;;;11.67;;
6821;SDS011;3449;48.728;8.968;2023-04-08T06:15:01;18.13;;;10.53;;
6821;SDS011;3449;48.728;8.968;2023-04-08T06:17:29;19.10;;;9.63;;
6821;SDS011;3449;48.728;8.968;2023-04-08T06:19:56;20.83;;;10.83;;
6821;SDS011;3449;48.728;8.968;2023-04-08T06:22:23;15.93;;;10.03;;
6821;SDS011;3449;48.728;8.968;2023-04-08T06:24:50;17.37;;;10.27;;
6821;SDS011;3449;48.728;8.968;2023-04-08T06:27:17;18.60;;;10.43;;
6821;SDS011;3449;48.728;8.968;2023-04-08T06:29:44;18.63;;;10.17;;
6821;SDS011;3449;48.728;8.968;2023-04-08T06:32:11;20.53;;;11.63;;
6821;SDS011;3449;48.728;8.968;2023-04-08T06:34:39;20.20;;;10.57;;
6821;SDS011;3449;48.728;8.968;2023-04-08T06:37:06;15.40;;;9.17;;
6821;SDS011;3449;48.728;8.968;2023-04-08T06:39:33;15.43;;;9.70;;
6821;SDS011;3449;48.728;8.968;2023-04-08T06:42:00;14.33;;;8.10;;
6821;SDS011;3449;48.728;8.968;2023-04-08T06:44:27;16.13;;;8.50;;
6821;SDS011;3449;48.728;8.968;2023-04-08T06:46:54;15.57;;;8.50;;
6821;SDS011;3449;48.728;8.968;2023-04-08T06:49:21;17.20;;;8.27;;
6821;SDS011;3449;48.728;8.968;2023-04-08T06:51:49;13.07;;;8.57;;
6821;SDS011;3449;48.728;8.968;2023-04-08T06:54:16;12.90;;;8.20;;
6821;SDS011;3449;48.728;8.968;2023-04-08T06:56:43;11.63;;;7.63;;
6821;SDS011;3449;48.728;8.968;2023-04-08T06:59:10;12.57;;;7.50;;
6821;SDS011;3449;48.728;8.968;2023-04-08T07:01:36;10.57;;;7.30;;
6821;SDS011;3449;48.728;8.968;2023-04-08T07:04:03;13.27;;;8.30;;
6821;SDS011;3449;48.728;8.968;2023-04-08T07:06:30;13.07;;;8.13;;
6821;SDS011;3449;48.728;8.968;2023-04-08T07:08:58;13.90;;;7.40;;
6821;SDS011;3449;48.728;8.968;2023-04-08T07:11:25;12.23;;;6.73;;
6821;SDS011;3449;48.728;8.968;2023-04-08T07:13:52;12.07;;;7.20;;
6821;SDS011;3449;48.728;8.968;2023-04-08T07:16:19;14.23;;;8.37;;
6821;SDS011;3449;48.728;8.968;2023-04-08T07:18:46;14.17;;;7.70;;
6821;SDS011;3449;48.728;8.968;2023-04-08T07:21:13;14.63;;;7.90;;
6821;SDS011;3449;48.728;8.968;2023-04-08T07:23:40;10.70;;;7.50;;
6821;SDS011;3449;48.728;8.968;2023-04-08T07:26:08;10.13;;;7.10;;
6821;SDS011;3449;48.728;8.968;2023-04-08T07:28:35;10.10;;;6.13;;
6821;SDS011;3449;48.728;8.968;2023-04-08T07:31:08;12.73;;;7.50;;
6821;SDS011;3449;48.728;8.968;2023-04-08T07:33:36;11.30;;;7.00;;
6821;SDS011;3449;48.728;8.968;2023-04-08T07:36:03;12.00;;;5.80;;
6821;SDS011;3449;48.728;8.968;2023-04-08T07:38:30;10.20;;;6.80;;
6821;SDS011;3449;48.728;8.968;2023-04-08T07:40:57;12.30;;;6.10;;
6821;SDS011;3449;48.728;8.968;2023-04-08T07:43:25;12.33;;;6.60;;
6821;SDS011;3449;48.728;8.968;2023-04-08T07:45:52;10.33;;;6.10;;
6821;SDS011;3449;48.728;8.968;2023-04-08T07:48:19;13.77;;;6.37;;
6821;SDS011;3449;48.728;8.968;2023-04-08T07:50:46;14.20;;;6.80;;
6821;SDS011;3449;48.728;8.968;2023-04-08T07:53:13;9.93;;;6.63;;
6821;SDS011;3449;48.728;8.968;2023-04-08T07:55:40;13.37;;;7.20;;
6821;SDS011;3449;48.728;8.968;2023-04-08T07:58:07;9.07;;;6.50;;
6821;SDS011;3449;48.728;8.968;2023-04-08T08:00:35;8.70;;;6.20;;
6821;SDS011;3449;48.728;8.968;2023-04-08T08:03:02;16.33;;;7.30;;
6821;SDS011;3449;48.728;8.968;2023-04-08T08:05:29;11.50;;;7.40;;
6821;SDS011;3449;48.728;8.968;2023-04-08T08:07:56;11.90;;;7.37;;
6821;SDS011;3449;48.728;8.968;2023-04-08T08:10:23;10.87;;;6.13;;
6821;SDS011;3449;48.728;8.968;2023-04-08T08:12:51;12.33;;;7.37;;
6821;SDS011;3449;48.728;8.968;2023-04-08T08:15:18;11.27;;;7.87;;
6821;SDS011;3449;48.728;8.968;2023-04-08T08:17:46;10.17;;;7.40;;
6821;SDS011;3449;48.728;8.968;2023-04-08T08:20:13;9.00;;;6.23;;
6821;SDS011;3449;48.728;8.968;2023-04-08T08:22:40;15.17;;;7.17;;
6821;SDS011;3449;48.728;8.968;2023-04-08T08:25:09;11.33;;;6.40;;
6821;SDS011;3449;48.728;8.968;2023-04-08T08:27:36;12.53;;;8.13;;
6821;SDS011;3449;48.728;8.968;2023-04-08T08:30:05;9.93;;;6.90;;
6821;SDS011;3449;48.728;8.968;2023-04-08T08:32:33;12.67;;;7.67;;
6821;SDS011;3449;48.728;8.968;2023-04-08T08:35:01;13.30;;;8.13;;
6821;SDS011;3449;48.728;8.968;2023-04-08T08:37:29;12.40;;;7.73;;
6821;SDS011;3449;48.728;8.968;2023-04-08T08:39:55;10.43;;;7.00;;
6821;SDS011;3449;48.728;8.968;2023-04-08T08:42:23;14.60;;;7.70;;
6821;SDS011;3449;48.728;8.968;2023-04-08T08:44:51;11.00;;;7.20;;
6821;SDS011;3449;48.728;8.968;2023-04-08T08:47:17;12.93;;;7.67;;
6821;SDS011;3449;48.728;8.968;2023-04-08T08:49:44;11.90;;;6.60;;
6821;SDS011;3449;48.728;8.968;2023-04-08T08:52:16;14.80;;;8.47;;
6821;SDS011;3449;48.728;8.968;2023-04-08T08:54:43;16.80;;;8.17;;
6821;SDS011;3449;48.728;8.968;2023-04-08T08:57:16;16.83;;;8.77;;
6821;SDS011;3449;48.728;8.968;2023-04-08T08:59:44;11.93;;;7.90;;
6821;SDS011;3449;48.728;8.968;2023-04-08T09:02:24;12.20;;;7.60;;
6821;SDS011;3449;48.728;8.968;2023-04-08T09:04:56;17.30;;;9.00;;
6821;SDS011;3449;48.728;8.968;2023-04-08T09:07:26;13.53;;;9.10;;
6821;SDS011;3449;48.728;8.968;2023-04-08T09:09:55;13.07;;;8.10;;
6821;SDS011;3449;48.728;8.968;2023-04-08T09:12:24;16.93;;;9.50;;
6821;SDS011;3449;48.728;8.968;2023-04-08T09:15:01;13.20;;;8.87;;
6821;SDS011;3449;48.728;8.968;2023-04-08T09:17:33;17.47;;;9.13;;
6821;SDS011;3449;48.728;8.968;2023-04-08T09:20:05;13.77;;;9.20;;
6821;SDS011;3449;48.728;8.968;2023-04-08T09:25:22;15.67;;;9.13;;
6821;SDS011;3449;48.728;8.968;2023-04-08T09:27:50;14.23;;;7.90;;
6821;SDS011;3449;48.728;8.968;2023-04-08T09:30:18;13.30;;;8.60;;
6821;SDS011;3449;48.728;8.968;2023-04-08T09:32:47;11.20;;;7.20;;
6821;SDS011;3449;48.728;8.968;2023-04-08T09:35:15;15.80;;;8.57;;
6821;SDS011;3449;48.728;8.968;2023-04-08T09:37:42;11.53;;;7.30;;
6821;SDS011;3449;48.728;8.968;2023-04-08T09:40:12;18.33;;;9.20;;
6821;SDS011;3449;48.728;8.968;2023-04-08T09:42:43;16.23;;;9.20;;
6821;SDS011;3449;48.728;8.968;2023-04-08T09:45:12;11.10;;;7.70;;
6821;SDS011;3449;48.728;8.968;2023-04-08T09:47:43;14.63;;;8.40;;
6821;SDS011;3449;48.728;8.968;2023-04-08T09:50:42;15.13;;;9.70;;
6821;SDS011;3449;48.728;8.968;2023-04-08T09:53:33;13.73;;;8.60;;
6821;SDS011;3449;48.728;8.968;2023-04-08T09:56:09;13.57;;;8.90;;
6821;SDS011;3449;48.728;8.968;2023-04-08T09:59:00;18.30;;;9.20;;
6821;SDS011;3449;48.728;8.968;2023-04-08T10:05:40;15.97;;;8.97;;
6821;SDS011;3449;48.728;8.968;2023-04-08T10:08:10;14.37;;;9.33;;
6821;SDS011;3449;48.728;8.968;2023-04-08T10:10:42;12.67;;;8.57;;
6821;SDS011;3449;48.728;8.968;2023-04-08T10:16:19;13.90;;;9.43;;
6821;SDS011;3449;48.728;8.968;2023-04-08T10:18:48;13.90;;;8.90;;
6821;SDS011;3449;48.728;8.968;2023-04-08T10:21:32;15.93;;;9.90;;
6821;SDS011;3449;48.728;8.968;2023-04-08T10:24:00;14.50;;;8.87;;
6821;SDS011;3449;48.728;8.968;2023-04-08T10:26:40;15.37;;;8.20;;
6821;SDS011;3449;48.728;8.968;2023-04-08T10:32:00;17.53;;;8.50;;
6821;SDS011;3449;48.728;8.968;2023-04-08T10:34:27;14.23;;;9.30;;
6821;SDS011;3449;48.728;8.968;2023-04-08T10:36:55;15.30;;;8.67;;
6821;SDS011;3449;48.728;8.968;2023-04-08T10:39:26;16.30;;;8.80;;
6821;SDS011;3449;48.728;8.968;2023-04-08T10:41:52;16.00;;;8.77;;
6821;SDS011;3449;48.728;8.968;2023-04-08T10:44:20;13.80;;;9.10;;
6821;SDS011;3449;48.728;8.968;2023-04-08T10:46:50;15.00;;;9.33;;
6821;SDS011;3449;48.728;8.968;2023-04-08T10:49:18;12.37;;;8.37;;
6821;SDS011;3449;48.728;8.968;2023-04-08T10:51:46;15.23;;;10.03;;
6821;SDS011;3449;48.728;8.968;2023-04-08T10:54:13;12.30;;;8.90;;
6821;SDS011;3449;48.728;8.968;2023-04-08T10:56:43;17.90;;;10.90;;
6821;SDS011;3449;48.728;8.968;2023-04-08T10:59:11;11.00;;;8.40;;
6821;SDS011;3449;48.728;8.968;2023-04-08T11:01:41;15.20;;;9.50;;
6821;SDS011;3449;48.728;8.968;2023-04-08T11:04:14;11.47;;;8.40;;
6821;SDS011;3449;48.728;8.968;2023-04-08T11:06:43;12.77;;;8.63;;
6821;SDS011;3449;48.728;8.968;2023-04-08T11:09:12;16.10;;;9.63;;
6821;SDS011;3449;48.728;8.968;2023-04-08T11:11:40;14.10;;;9.90;;
6821;SDS011;3449;48.728;8.968;2023-04-08T11:14:08;13.97;;;9.43;;
6821;SDS011;3449;48.728;8.968;2023-04-08T11:16:36;13.90;;;8.80;;
6821;SDS011;3449;48.728;8.968;2023-04-08T11:19:03;15.03;;;8.70;;
6821;SDS011;3449;48.728;8.968;2023-04-08T11:21:32;14.00;;;8.70;;
6821;SDS011;3449;48.728;8.968;2023-04-08T11:24:05;17.53;;;10.10;;
6821;SDS011;3449;48.728;8.968;2023-04-08T11:26:33;15.10;;;10.00;;
6821;SDS011;3449;48.728;8.968;2023-04-08T11:29:01;14.23;;;9.53;;
6821;SDS011;3449;48.728;8.968;2023-04-08T11:31:30;15.13;;;9.17;;
6821;SDS011;3449;48.728;8.968;2023-04-08T11:33:58;17.13;;;9.90;;
6821;SDS011;3449;48.728;8.968;2023-04-08T11:36:27;15.90;;;9.07;;
6821;SDS011;3449;48.728;8.968;2023-04-08T11:38:56;13.53;;;8.93;;
6821;SDS011;3449;48.728;8.968;2023-04-08T11:41:22;15.40;;;9.80;;
6821;SDS011;3449;48.728;8.968;2023-04-08T11:43:54;13.67;;;9.27;;
6821;SDS011;3449;48.728;8.968;2023-04-08T11:46:21;11.67;;;9.07;;
6821;SDS011;3449;48.728;8.968;2023-04-08T11:49:02;15.97;;;10.27;;
6821;SDS011;3449;48.728;8.968;2023-04-08T11:51:30;16.27;;;8.53;;
6821;SDS011;3449;48.728;8.968;2023-04-08T11:54:00;22.27;;;9.20;;
6821;SDS011;3449;48.728;8.968;2023-04-08T11:56:30;15.30;;;9.40;;
6821;SDS011;3449;48.728;8.968;2023-04-08T11:59:09;14.33;;;9.67;;
6821;SDS011;3449;48.728;8.968;2023-04-08T12:01:36;14.20;;;9.50;;
6821;SDS011;3449;48.728;8.968;2023-04-08T12:04:03;14.57;;;9.73;;
6821;SDS011;3449;48.728;8.968;2023-04-08T12:06:30;12.90;;;8.00;;
6821;SDS011;3449;48.728;8.968;2023-04-08T12:08:58;13.20;;;9.10;;
6821;SDS011;3449;48.728;8.968;2023-04-08T12:11:26;14.10;;;8.90;;
6821;SDS011;3449;48.728;8.968;2023-04-08T12:13:53;13.27;;;8.80;;
6821;SDS011;3449;48.728;8.968;2023-04-08T12:16:20;16.90;;;9.40;;
6821;SDS011;3449;48.728;8.968;2023-04-08T12:18:47;15.23;;;8.83;;
6821;SDS011;3449;48.728;8.968;2023-04-08T12:21:14;14.50;;;9.67;;
6821;SDS011;3449;48.728;8.968;2023-04-08T12:23:41;20.20;;;9.50;;
6821;SDS011;3449;48.728;8.968;2023-04-08T12:26:10;15.07;;;9.33;;
6821;SDS011;3449;48.728;8.968;2023-04-08T12:28:37;10.70;;;8.50;;
6821;SDS011;3449;48.728;8.968;2023-04-08T12:31:04;11.50;;;7.97;;
6821;SDS011;3449;48.728;8.968;2023-04-08T12:33:31;19.27;;;9.60;;
6821;SDS011;3449;48.728;8.968;2023-04-08T12:35:58;14.20;;;8.33;;
6821;SDS011;3449;48.728;8.968;2023-04-08T12:38:25;13.40;;;9.50;;
6821;SDS011;3449;48.728;8.968;2023-04-08T12:40:52;13.27;;;9.50;;
6821;SDS011;3449;48.728;8.968;2023-04-08T12:43:21;16.33;;;9.47;;
6821;SDS011;3449;48.728;8.968;2023-04-08T12:45:48;13.57;;;9.60;;
6821;SDS011;3449;48.728;8.968;2023-04-08T12:48:15;14.80;;;9.57;;
6821;SDS011;3449;48.728;8.968;2023-04-08T12:50:42;14.27;;;9.30;;
6821;SDS011;3449;48.728;8.968;2023-04-08T12:53:09;14.33;;;9.00;;
6821;SDS011;3449;48.728;8.968;2023-04-08T12:55:36;13.40;;;9.00;;
6821;SDS011;3449;48.728;8.968;2023-04-08T12:58:03;12.23;;;8.83;;
6821;SDS011;3449;48.728;8.968;2023-04-08T13:00:32;14.33;;;9.90;;
6821;SDS011;3449;48.728;8.968;2023-04-08T13:03:01;13.50;;;9.20;;
6821;SDS011;3449;48.728;8.968;2023-04-08T13:05:28;15.67;;;10.40;;
6821;SDS011;3449;48.728;8.968;2023-04-08T13:07:55;14.50;;;9.60;;
6821;SDS011;3449;48.728;8.968;2023-04-08T13:10:22;14.27;;;9.57;;
6821;SDS011;3449;48.728;8.968;2023-04-08T13:12:49;16.50;;;9.67;;
6821;SDS011;3449;48.728;8.968;2023-04-08T13:15:16;14.80;;;9.37;;
6821;SDS011;3449;48.728;8.968;2023-04-08T13:17:44;12.00;;;9.00;;
6821;SDS011;3449;48.728;8.968;2023-04-08T13:20:11;17.70;;;10.00;;
6821;SDS011;3449;48.728;8.968;2023-04-08T13:22:38;14.30;;;9.23;;
6821;SDS011;3449;48.728;8.968;2023-04-08T13:25:05;14.13;;;9.57;;
6821;SDS011;3449;48.728;8.968;2023-04-08T13:27:33;14.80;;;9.20;;
6821;SDS011;3449;48.728;8.968;2023-04-08T13:29:59;15.77;;;9.30;;
6821;SDS011;3449;48.728;8.968;2023-04-08T13:32:27;23.30;;;9.63;;
6821;SDS011;3449;48.728;8.968;2023-04-08T13:34:55;16.40;;;9.63;;
6821;SDS011;3449;48.728;8.968;2023-04-08T13:37:22;15.43;;;9.23;;
6821;SDS011;3449;48.728;8.968;2023-04-08T13:39:49;14.23;;;8.80;;
6821;SDS011;3449;48.728;8.968;2023-04-08T13:42:15;11.73;;;8.83;;
6821;SDS011;3449;48.728;8.968;2023-04-08T13:44:42;16.63;;;8.37;;
6821;SDS011;3449;48.728;8.968;2023-04-08T13:47:09;14.83;;;10.23;;
6821;SDS011;3449;48.728;8.968;2023-04-08T13:49:36;19.47;;;11.03;;
6821;SDS011;3449;48.728;8.968;2023-04-08T13:52:05;16.27;;;10.10;;
6821;SDS011;3449;48.728;8.968;2023-04-08T13:54:32;13.53;;;9.40;;
6821;SDS011;3449;48.728;8.968;2023-04-08T13:56:59;13.23;;;9.13;;
6821;SDS011;3449;48.728;8.968;2023-04-08T13:59:26;11.10;;;7.90;;
6821;SDS011;3449;48.728;8.968;2023-04-08T14:01:53;13.07;;;9.47;;
6821;SDS011;3449;48.728;8.968;2023-04-08T14:04:20;15.43;;;9.43;;
6821;SDS011;3449;48.728;8.968;2023-04-08T14:06:47;12.57;;;9.07;;
6821;SDS011;3449;48.728;8.968;2023-04-08T14:09:16;13.80;;;9.60;;
6821;SDS011;3449;48.728;8.968;2023-04-08T14:11:43;14.83;;;9.47;;
6821;SDS011;3449;48.728;8.968;2023-04-08T14:14:10;13.73;;;9.27;;
6821;SDS011;3449;48.728;8.968;2023-04-08T14:16:38;16.50;;;9.83;;
6821;SDS011;3449;48.728;8.968;2023-04-08T14:19:06;13.87;;;8.90;;
6821;SDS011;3449;48.728;8.968;2023-04-08T14:21:33;20.60;;;9.00;;
6821;SDS011;3449;48.728;8.968;2023-04-08T14:24:01;15.83;;;9.23;;
6821;SDS011;3449;48.728;8.968;2023-04-08T14:26:30;18.30;;;10.23;;
6821;SDS011;3449;48.728;8.968;2023-04-08T14:29:00;16.37;;;9.53;;
6821;SDS011;3449;48.728;8.968;2023-04-08T14:31:28;13.60;;;9.50;;
6821;SDS011;3449;48.728;8.968;2023-04-08T14:33:55;13.10;;;9.27;;
6821;SDS011;3449;48.728;8.968;2023-04-08T14:36:22;14.93;;;8.30;;
6821;SDS011;3449;48.728;8.968;2023-04-08T14:38:50;14.47;;;9.80;;
6821;SDS011;3449;48.728;8.968;2023-04-08T14:41:17;15.40;;;9.30;;
6821;SDS011;3449;48.728;8.968;2023-04-08T14:43:46;14.37;;;10.00;;
6821;SDS011;3449;48.728;8.968;2023-04-08T14:46:14;13.83;;;9.47;;
6821;SDS011;3449;48.728;8.968;2023-04-08T14:48:41;17.40;;;10.13;;
6821;SDS011;3449;48.728;8.968;2023-04-08T14:51:07;15.07;;;9.77;;
6821;SDS011;3449;48.728;8.968;2023-04-08T14:53:34;16.13;;;9.50;;
6821;SDS011;3449;48.728;8.968;2023-04-08T14:56:01;13.33;;;9.50;;
6821;SDS011;3449;48.728;8.968;2023-04-08T14:58:29;12.37;;;8.47;;
6821;SDS011;3449;48.728;8.968;2023-04-08T15:00:57;13.37;;;8.97;;
6821;SDS011;3449;48.728;8.968;2023-04-08T15:03:24;19.50;;;9.70;;
6821;SDS011;3449;48.728;8.968;2023-04-08T15:05:51;14.40;;;8.73;;
6821;SDS011;3449;48.728;8.968;2023-04-08T15:08:19;11.77;;;9.20;;
6821;SDS011;3449;48.728;8.968;2023-04-08T15:10:46;18.70;;;9.73;;
6821;SDS011;3449;48.728;8.968;2023-04-08T15:13:13;11.70;;;8.07;;
6821;SDS011;3449;48.728;8.968;2023-04-08T15:15:40;14.30;;;9.00;;